Time,TemperatureF,DewpointF,PressureIn,WindDirection,WindDirectionDegrees,WindSpeedMPH,WindSpeedGustMPH,Humidity,HourlyPrecipIn,Conditions,Clouds,dailyrainin,SoftwareType,DateUTC
2013-08-23 00:03:00,60.6,37.9,30.09,ESE,112,0.0,0.0,43,0.00,,,0.00,WUHU21623XXSP,2013-08-23 07:03:00,
2013-08-23 00:09:00,60.1,37.4,30.09,South,180,0.0,0.0,43,0.00,,,0.00,WUHU21623XXSP,2013-08-23 07:09:00,
2013-08-23 00:14:00,59.9,37.2,30.09,ENE,67,0.0,0.0,43,0.00,,,0.00,WUHU21623XXSP,2013-08-23 07:14:00,
2013-08-23 00:22:00,59.5,37.5,30.09,SSE,157,0.0,0.0,44,0.00,,,0.00,WUHU21623XXSP,2013-08-23 07:22:00,
2013-08-23 00:28:00,59.2,37.2,30.09,WSW,247,0.0,0.0,44,0.00,,,0.00,WUHU21623XXSP,2013-08-23 07:28:00,
2013-08-23 00:33:00,59.0,37.0,30.10,SSE,157,0.0,0.0,44,0.00,,,0.00,WUHU21623XXSP,2013-08-23 07:33:00,
2013-08-23 00:41:00,58.8,36.8,30.09,SSE,157,0.0,0.0,44,0.00,,,0.00,WUHU21623XXSP,2013-08-23 07:41:00,
2013-08-23 00:50:00,58.3,36.9,30.10,SSE,157,0.0,0.0,45,0.00,,,0.00,WUHU21623XXSP,2013-08-23 07:50:00,
2013-08-23 00:56:00,58.3,36.9,30.09,NNW,337,0.0,0.0,45,0.00,,,0.00,WUHU21623XXSP,2013-08-23 07:56:00,
2013-08-23 01:01:00,58.3,36.9,30.09,NNW,337,0.0,0.0,45,0.00,,,0.00,WUHU21623XXSP,2013-08-23 08:01:00,
2013-08-23 01:07:00,57.9,36.8,30.09,NNW,337,0.0,0.0,45,0.00,,,0.00,WUHU21623XXSP,2013-08-23 08:07:00,
2013-08-23 01:24:00,57.6,36.3,30.09,SW,225,0.0,0.0,45,0.00,,,0.00,WUHU21623XXSP,2013-08-23 08:24:00,
2013-08-23 01:29:00,57.4,36.1,30.09,SSW,202,0.0,0.0,45,0.00,,,0.00,WUHU21623XXSP,2013-08-23 08:29:00,
2013-08-23 01:39:00,56.8,36.2,30.09,East,90,0.0,0.0,46,0.00,,,0.00,WUHU21623XXSP,2013-08-23 08:39:00,
2013-08-23 01:45:00,56.5,35.8,30.09,SE,135,0.0,0.0,46,0.00,,,0.00,WUHU21623XXSP,2013-08-23 08:45:00,
2013-08-23 01:52:00,56.1,35.5,30.09,ESE,112,0.0,0.0,46,0.00,,,0.00,WUHU21623XXSP,2013-08-23 08:52:00,
2013-08-23 01:57:00,55.9,35.9,30.09,SE,135,0.0,0.0,47,0.00,,,0.00,WUHU21623XXSP,2013-08-23 08:57:00,
2013-08-23 02:02:00,55.6,35.7,30.09,ENE,67,0.0,0.0,47,0.00,,,0.00,WUHU21623XXSP,2013-08-23 09:02:00,
2013-08-23 02:07:00,55.6,35.5,30.09,ENE,67,0.0,0.0,47,0.00,,,0.00,WUHU21623XXSP,2013-08-23 09:07:00,
2013-08-23 02:13:00,55.2,35.2,30.09,ENE,67,0.0,0.0,47,0.00,,,0.00,WUHU21623XXSP,2013-08-23 09:13:00,
2013-08-23 02:20:00,55.0,35.0,30.09,ESE,112,0.0,0.0,47,0.00,,,0.00,WUHU21623XXSP,2013-08-23 09:20:00,
2013-08-23 02:28:00,54.5,35.1,30.09,East,90,0.0,0.0,48,0.00,,,0.00,WUHU21623XXSP,2013-08-23 09:28:00,
2013-08-23 02:33:00,54.5,35.1,30.09,East,90,0.0,0.0,48,0.00,,,0.00,WUHU21623XXSP,2013-08-23 09:33:00,
2013-08-23 02:52:00,54.0,34.6,30.09,East,90,0.0,0.0,48,0.00,,,0.00,WUHU21623XXSP,2013-08-23 09:52:00,
2013-08-23 02:57:00,54.0,34.6,30.08,ENE,67,0.0,0.0,48,0.00,,,0.00,WUHU21623XXSP,2013-08-23 09:57:00,
2013-08-23 03:02:00,54.0,34.6,30.08,ENE,67,0.0,0.0,48,0.00,,,0.00,WUHU21623XXSP,2013-08-23 10:02:00,
2013-08-23 03:07:00,54.0,34.6,30.08,NW,315,0.0,0.0,48,0.00,,,0.00,WUHU21623XXSP,2013-08-23 10:07:00,
2013-08-23 03:14:00,53.8,34.5,30.09,WNW,292,0.0,0.0,48,0.00,,,0.00,WUHU21623XXSP,2013-08-23 10:14:00,
2013-08-23 03:24:00,53.8,34.5,30.09,WNW,292,0.0,0.0,48,0.00,,,0.00,WUHU21623XXSP,2013-08-23 10:24:00,
2013-08-23 03:29:00,53.4,34.1,30.09,WNW,292,0.0,0.0,48,0.00,,,0.00,WUHU21623XXSP,2013-08-23 10:29:00,
2013-08-23 03:41:00,53.1,34.0,30.09,NNW,337,0.0,0.0,48,0.00,,,0.00,WUHU21623XXSP,2013-08-23 10:41:00,
2013-08-23 03:46:00,52.9,34.2,30.08,NNW,337,0.0,0.0,49,0.00,,,0.00,WUHU21623XXSP,2013-08-23 10:46:00,
2013-08-23 03:51:00,52.9,34.2,30.08,NNW,337,0.0,0.0,49,0.00,,,0.00,WUHU21623XXSP,2013-08-23 10:51:00,
2013-08-23 03:56:00,52.7,34.1,30.08,NNW,337,0.0,0.0,49,0.00,,,0.00,WUHU21623XXSP,2013-08-23 10:56:00,
2013-08-23 04:01:00,52.3,33.7,30.08,NNW,337,0.0,0.0,49,0.00,,,0.00,WUHU21623XXSP,2013-08-23 11:01:00,
2013-08-23 04:07:00,52.2,34.1,30.08,NNE,22,0.0,0.0,50,0.00,,,0.00,WUHU21623XXSP,2013-08-23 11:07:00,
2013-08-23 04:14:00,51.8,33.8,30.08,NNE,22,0.0,0.0,50,0.00,,,0.00,WUHU21623XXSP,2013-08-23 11:14:00,
2013-08-23 04:19:00,51.6,33.6,30.08,ENE,67,0.0,0.0,50,0.00,,,0.00,WUHU21623XXSP,2013-08-23 11:19:00,
2013-08-23 04:24:00,51.3,33.5,30.08,East,90,0.0,0.0,50,0.00,,,0.00,WUHU21623XXSP,2013-08-23 11:24:00,
2013-08-23 04:29:00,51.1,33.2,30.08,East,90,0.0,0.0,50,0.00,,,0.00,WUHU21623XXSP,2013-08-23 11:29:00,
2013-08-23 04:39:00,50.7,33.3,30.07,NE,45,0.0,0.0,51,0.00,,,0.00,WUHU21623XXSP,2013-08-23 11:39:00,
2013-08-23 04:48:00,50.7,32.8,30.07,West,270,0.0,0.0,50,0.00,,,0.00,WUHU21623XXSP,2013-08-23 11:48:00,
2013-08-23 04:53:00,50.7,32.8,30.07,SSE,157,0.0,0.0,50,0.00,,,0.00,WUHU21623XXSP,2013-08-23 11:53:00,
2013-08-23 04:58:00,50.5,32.7,30.08,South,180,0.0,0.0,50,0.00,,,0.00,WUHU21623XXSP,2013-08-23 11:58:00,
2013-08-23 05:03:00,50.5,33.1,30.08,West,270,0.0,0.0,51,0.00,,,0.00,WUHU21623XXSP,2013-08-23 12:03:00,
2013-08-23 05:08:00,50.4,33.0,30.07,North,0,0.9,0.9,51,0.00,,,0.00,WUHU21623XXSP,2013-08-23 12:08:00,
2013-08-23 05:13:00,50.4,33.0,30.08,NW,315,0.0,0.9,51,0.00,,,0.00,WUHU21623XXSP,2013-08-23 12:13:00,
2013-08-23 05:35:00,49.8,32.5,30.08,WNW,292,0.0,0.0,51,0.00,,,0.00,WUHU21623XXSP,2013-08-23 12:35:00,
2013-08-23 05:40:00,49.8,32.5,30.08,WNW,292,0.0,0.0,51,0.00,,,0.00,WUHU21623XXSP,2013-08-23 12:40:00,
2013-08-23 05:47:00,49.6,32.3,30.09,South,180,0.0,0.0,51,0.00,,,0.00,WUHU21623XXSP,2013-08-23 12:47:00,
2013-08-23 05:52:00,49.3,32.1,30.08,South,180,0.0,0.0,51,0.00,,,0.00,WUHU21623XXSP,2013-08-23 12:52:00,
2013-08-23 05:57:00,49.3,31.9,30.09,SSW,202,0.0,0.0,51,0.00,,,0.00,WUHU21623XXSP,2013-08-23 12:57:00,
2013-08-23 06:03:00,48.9,32.0,30.08,ENE,67,0.0,0.0,52,0.00,,,0.00,WUHU21623XXSP,2013-08-23 13:03:00,
2013-08-23 06:08:00,48.7,31.8,30.08,ENE,67,0.0,0.0,52,0.00,,,0.00,WUHU21623XXSP,2013-08-23 13:08:00,
2013-08-23 06:13:00,48.7,31.8,30.08,ENE,67,0.0,0.0,52,0.00,,,0.00,WUHU21623XXSP,2013-08-23 13:13:00,
2013-08-23 06:18:00,48.6,31.7,30.08,SE,135,0.0,0.0,52,0.00,,,0.00,WUHU21623XXSP,2013-08-23 13:18:00,
2013-08-23 06:28:00,48.0,31.6,30.08,East,90,0.0,0.0,53,0.00,,,0.00,WUHU21623XXSP,2013-08-23 13:28:00,
2013-08-23 06:33:00,48.0,31.6,30.08,ENE,67,0.0,0.0,53,0.00,,,0.00,WUHU21623XXSP,2013-08-23 13:33:00,
2013-08-23 06:45:00,47.8,31.4,30.08,ENE,67,0.0,0.0,53,0.00,,,0.00,WUHU21623XXSP,2013-08-23 13:45:00,
2013-08-23 06:50:00,47.7,31.3,30.08,NW,315,0.0,0.0,53,0.00,,,0.00,WUHU21623XXSP,2013-08-23 13:50:00,
2013-08-23 06:56:00,47.5,31.6,30.08,NNW,337,0.0,0.0,54,0.00,,,0.00,WUHU21623XXSP,2013-08-23 13:56:00,
2013-08-23 07:02:00,47.5,31.6,30.08,WNW,292,0.0,0.0,54,0.00,,,0.00,WUHU21623XXSP,2013-08-23 14:02:00,
2013-08-23 07:07:00,47.7,31.7,30.08,NW,315,0.0,0.0,54,0.00,,,0.00,WUHU21623XXSP,2013-08-23 14:07:00,
2013-08-23 07:13:00,47.8,31.9,30.09,SE,135,0.0,0.0,54,0.00,,,0.00,WUHU21623XXSP,2013-08-23 14:13:00,
2013-08-23 07:18:00,47.8,32.4,30.09,SE,135,0.0,0.0,55,0.00,,,0.00,WUHU21623XXSP,2013-08-23 14:18:00,
2013-08-23 07:28:00,47.8,32.4,30.09,SSE,157,0.0,0.0,55,0.00,,,0.00,WUHU21623XXSP,2013-08-23 14:28:00,
2013-08-23 07:33:00,47.8,32.4,30.09,SSE,157,0.0,0.0,55,0.00,,,0.00,WUHU21623XXSP,2013-08-23 14:33:00,
2013-08-23 07:39:00,47.8,32.4,30.09,SSE,157,0.0,0.0,55,0.00,,,0.00,WUHU21623XXSP,2013-08-23 14:39:00,
2013-08-23 07:45:00,48.0,33.0,30.09,SSE,157,0.0,0.0,56,0.00,,,0.00,WUHU21623XXSP,2013-08-23 14:45:00,
2013-08-23 07:52:00,48.2,33.0,30.09,SSE,157,0.0,0.0,56,0.00,,,0.00,WUHU21623XXSP,2013-08-23 14:52:00,
2013-08-23 07:57:00,48.4,33.4,30.09,SSE,157,0.0,0.0,56,0.00,,,0.00,WUHU21623XXSP,2013-08-23 14:57:00,
2013-08-23 08:02:00,48.6,33.5,30.09,SSE,157,0.0,0.0,56,0.00,,,0.00,WUHU21623XXSP,2013-08-23 15:02:00,
2013-08-23 08:09:00,48.9,33.9,30.09,SSE,157,0.0,0.0,56,0.00,,,0.00,WUHU21623XXSP,2013-08-23 15:09:00,
2013-08-23 08:14:00,49.1,34.0,30.09,SSE,157,0.0,0.0,56,0.00,,,0.00,WUHU21623XXSP,2013-08-23 15:14:00,
2013-08-23 08:24:00,49.8,35.1,30.09,SSE,157,0.0,0.0,57,0.00,,,0.00,WUHU21623XXSP,2013-08-23 15:24:00,
2013-08-23 08:29:00,50.2,35.5,30.09,SSE,157,0.0,0.0,57,0.00,,,0.00,WUHU21623XXSP,2013-08-23 15:29:00,
2013-08-23 08:37:00,50.7,36.0,30.09,SSE,157,0.0,0.0,57,0.00,,,0.00,WUHU21623XXSP,2013-08-23 15:37:00,
2013-08-23 08:45:00,51.4,36.6,30.09,SSE,157,0.0,0.0,57,0.00,,,0.00,WUHU21623XXSP,2013-08-23 15:45:00,
2013-08-23 08:54:00,52.2,37.3,30.09,WNW,292,0.0,0.0,57,0.00,,,0.00,WUHU21623XXSP,2013-08-23 15:54:00,
2013-08-23 09:02:00,52.7,37.8,30.08,SSW,202,0.0,0.0,57,0.00,,,0.00,WUHU21623XXSP,2013-08-23 16:02:00,
2013-08-23 09:07:00,53.2,37.8,30.08,SSW,202,0.0,0.0,57,0.00,,,0.00,WUHU21623XXSP,2013-08-23 16:07:00,
2013-08-23 09:15:00,54.0,38.6,30.08,SW,225,0.0,0.0,56,0.00,,,0.00,WUHU21623XXSP,2013-08-23 16:15:00,
2013-08-23 09:20:00,54.3,38.7,30.08,West,270,0.0,0.0,56,0.00,,,0.00,WUHU21623XXSP,2013-08-23 16:20:00,
2013-08-23 09:25:00,54.7,39.2,30.08,West,270,0.0,0.0,55,0.00,,,0.00,WUHU21623XXSP,2013-08-23 16:25:00,
2013-08-23 09:30:00,55.8,39.4,30.08,SSE,157,0.0,0.0,55,0.00,,,0.00,WUHU21623XXSP,2013-08-23 16:30:00,
2013-08-23 09:35:00,55.9,39.9,30.08,NW,315,0.0,0.0,55,0.00,,,0.00,WUHU21623XXSP,2013-08-23 16:35:00,
2013-08-23 09:41:00,56.7,40.2,30.07,WNW,292,0.0,0.0,54,0.00,,,0.00,WUHU21623XXSP,2013-08-23 16:41:00,
2013-08-23 09:46:00,57.0,40.5,30.07,WNW,292,0.0,0.0,54,0.00,,,0.00,WUHU21623XXSP,2013-08-23 16:46:00,
2013-08-23 09:51:00,57.7,40.6,30.08,South,180,0.0,0.0,53,0.00,,,0.00,WUHU21623XXSP,2013-08-23 16:51:00,
2013-08-23 09:56:00,58.1,41.1,30.07,WSW,247,0.0,0.0,53,0.00,,,0.00,WUHU21623XXSP,2013-08-23 16:56:00,
2013-08-23 10:02:00,58.8,41.2,30.07,WNW,292,0.0,0.0,52,0.00,,,0.00,WUHU21623XXSP,2013-08-23 17:02:00,
2013-08-23 10:07:00,59.2,41.1,30.07,NW,315,0.0,0.0,51,0.00,,,0.00,WUHU21623XXSP,2013-08-23 17:07:00,
2013-08-23 10:12:00,59.7,41.4,30.07,WNW,292,0.0,0.0,51,0.00,,,0.00,WUHU21623XXSP,2013-08-23 17:12:00,
2013-08-23 10:17:00,60.1,41.4,30.06,NW,315,0.0,0.0,50,0.00,,,0.00,WUHU21623XXSP,2013-08-23 17:17:00,
2013-08-23 10:24:00,61.0,42.2,30.06,NNW,337,0.0,0.0,50,0.00,,,0.00,WUHU21623XXSP,2013-08-23 17:24:00,
2013-08-23 10:29:00,61.3,42.4,30.06,SSW,202,0.0,0.0,49,0.00,,,0.00,WUHU21623XXSP,2013-08-23 17:29:00,
2013-08-23 10:34:00,62.1,42.6,30.06,NNW,337,0.0,0.0,49,0.00,,,0.00,WUHU21623XXSP,2013-08-23 17:34:00,
2013-08-23 10:41:00,62.8,43.3,30.06,WSW,247,0.0,0.0,49,0.00,,,0.00,WUHU21623XXSP,2013-08-23 17:41:00,
2013-08-23 10:54:00,64.6,43.8,30.06,North,0,0.9,0.9,47,0.00,,,0.00,WUHU21623XXSP,2013-08-23 17:54:00,
2013-08-23 10:59:00,65.1,43.7,30.06,NW,315,0.0,0.9,46,0.00,,,0.00,WUHU21623XXSP,2013-08-23 17:59:00,
2013-08-23 11:04:00,66.0,43.8,30.06,NW,315,0.0,0.0,45,0.00,,,0.00,WUHU21623XXSP,2013-08-23 18:04:00,
2013-08-23 11:09:00,66.7,44.0,30.06,NNW,337,0.0,0.0,44,0.00,,,0.00,WUHU21623XXSP,2013-08-23 18:09:00,
2013-08-23 11:19:00,68.2,44.1,30.05,South,180,0.0,0.0,42,0.00,,,0.00,WUHU21623XXSP,2013-08-23 18:19:00,
2013-08-23 11:28:00,69.4,44.7,30.05,SW,225,0.0,0.0,41,0.00,,,0.00,WUHU21623XXSP,2013-08-23 18:28:00,
2013-08-23 11:36:00,70.3,45.5,30.04,North,0,0.0,0.0,41,0.00,,,0.00,WUHU21623XXSP,2013-08-23 18:36:00,
2013-08-23 11:45:00,71.2,46.3,30.04,ENE,67,0.0,0.0,41,0.00,,,0.00,WUHU21623XXSP,2013-08-23 18:45:00,
2013-08-23 11:54:00,72.1,46.5,30.05,SSE,157,0.0,0.0,40,0.00,,,0.00,WUHU21623XXSP,2013-08-23 18:54:00,
2013-08-23 11:59:00,72.7,47.0,30.04,WNW,292,0.7,0.7,40,0.00,,,0.00,WUHU21623XXSP,2013-08-23 18:59:00,
2013-08-23 12:04:00,73.2,46.0,30.04,NNE,22,0.0,0.7,38,0.00,,,0.00,WUHU21623XXSP,2013-08-23 19:04:00,
2013-08-23 12:11:00,73.9,45.9,30.04,South,180,2.0,2.0,37,0.00,,,0.00,WUHU21623XXSP,2013-08-23 19:11:00,
2013-08-23 12:16:00,74.8,46.7,30.04,SSE,157,2.5,2.5,37,0.00,,,0.00,WUHU21623XXSP,2013-08-23 19:16:00,
2013-08-23 12:34:00,76.8,47.0,30.03,SSE,157,0.0,0.0,35,0.00,,,0.00,WUHU21623XXSP,2013-08-23 19:34:00,
2013-08-23 12:39:00,76.8,47.0,30.03,SSE,157,0.0,0.0,35,0.00,,,0.00,WUHU21623XXSP,2013-08-23 19:39:00,
2013-08-23 12:45:00,77.2,45.8,30.02,South,180,0.0,0.0,33,0.00,,,0.00,WUHU21623XXSP,2013-08-23 19:45:00,
2013-08-23 12:51:00,77.7,46.2,30.03,South,180,0.0,0.0,33,0.00,,,0.00,WUHU21623XXSP,2013-08-23 19:51:00,
2013-08-23 12:56:00,77.9,46.3,30.02,SE,135,2.9,2.9,33,0.00,,,0.00,WUHU21623XXSP,2013-08-23 19:56:00,
2013-08-23 13:02:00,78.4,46.0,30.02,SSE,157,0.0,2.9,32,0.00,,,0.00,WUHU21623XXSP,2013-08-23 20:02:00,
2013-08-23 13:07:00,78.6,45.4,30.02,WNW,292,0.0,0.0,31,0.00,,,0.00,WUHU21623XXSP,2013-08-23 20:07:00,
2013-08-23 13:13:00,79.0,45.7,30.02,NW,315,0.0,4.9,31,0.00,,,0.00,WUHU21623XXSP,2013-08-23 20:13:00,
2013-08-23 13:18:00,79.2,45.9,30.02,WNW,292,0.0,4.9,31,0.00,,,0.00,WUHU21623XXSP,2013-08-23 20:18:00,
2013-08-23 13:26:00,79.5,45.4,30.02,WNW,292,0.0,0.0,30,0.00,,,0.00,WUHU21623XXSP,2013-08-23 20:26:00,
2013-08-23 13:31:00,79.9,45.8,30.02,NNW,337,0.0,0.0,30,0.00,,,0.00,WUHU21623XXSP,2013-08-23 20:31:00,
2013-08-23 13:43:00,80.8,46.5,30.01,NNE,22,0.0,0.0,30,0.00,,,0.00,WUHU21623XXSP,2013-08-23 20:43:00,
2013-08-23 13:48:00,81.1,45.8,30.01,SSW,202,4.3,4.3,29,0.00,,,0.00,WUHU21623XXSP,2013-08-23 20:48:00,
2013-08-23 13:56:00,81.7,45.2,30.01,West,270,0.0,4.3,28,0.00,,,0.00,WUHU21623XXSP,2013-08-23 20:56:00,
2013-08-23 14:01:00,82.0,45.2,30.01,South,180,0.0,0.0,27,0.00,,,0.00,WUHU21623XXSP,2013-08-23 21:01:00,
2013-08-23 14:06:00,82.0,44.4,30.01,WNW,292,2.9,2.9,27,0.00,,,0.00,WUHU21623XXSP,2013-08-23 21:06:00,
2013-08-23 14:13:00,82.2,43.5,30.01,West,270,0.0,2.9,26,0.00,,,0.00,WUHU21623XXSP,2013-08-23 21:13:00,
2013-08-23 14:18:00,82.2,44.6,30.01,SW,225,2.5,2.5,27,0.00,,,0.00,WUHU21623XXSP,2013-08-23 21:18:00,
2013-08-23 14:23:00,82.6,44.9,30.01,North,0,0.0,2.5,27,0.00,,,0.00,WUHU21623XXSP,2013-08-23 21:23:00,
2013-08-23 14:47:00,82.8,44.0,30.00,West,270,9.4,9.4,26,0.00,,,0.00,WUHU21623XXSP,2013-08-23 21:47:00,
2013-08-23 14:52:00,82.8,44.0,30.00,NE,45,0.0,9.4,26,0.00,,,0.00,WUHU21623XXSP,2013-08-23 21:52:00,
2013-08-23 14:57:00,82.2,43.5,30.00,NNE,22,0.0,0.0,26,0.00,,,0.00,WUHU21623XXSP,2013-08-23 21:57:00,
2013-08-23 15:04:00,82.0,43.4,30.00,South,180,12.1,12.1,26,0.00,,,0.00,WUHU21623XXSP,2013-08-23 22:04:00,
2013-08-23 15:10:00,81.5,42.9,30.00,SSE,157,3.1,12.1,26,0.00,,,0.00,WUHU21623XXSP,2013-08-23 22:10:00,
2013-08-23 15:17:00,81.3,42.8,29.99,West,270,1.3,3.1,26,0.00,,,0.00,WUHU21623XXSP,2013-08-23 22:17:00,
2013-08-23 15:23:00,81.3,42.8,29.99,South,180,0.0,1.3,26,0.00,,,0.00,WUHU21623XXSP,2013-08-23 22:23:00,
2013-08-23 15:29:00,81.3,42.8,29.99,SE,135,0.0,0.0,26,0.00,,,0.00,WUHU21623XXSP,2013-08-23 22:29:00,
2013-08-23 15:36:00,81.3,42.8,29.99,WSW,247,0.0,0.0,26,0.00,,,0.00,WUHU21623XXSP,2013-08-23 22:36:00,
2013-08-23 15:41:00,81.3,42.8,29.99,NW,315,0.0,0.0,26,0.00,,,0.00,WUHU21623XXSP,2013-08-23 22:41:00,
2013-08-23 15:47:00,81.5,42.9,29.99,WNW,292,0.0,0.0,26,0.00,,,0.00,WUHU21623XXSP,2013-08-23 22:47:00,
2013-08-23 15:53:00,81.7,43.1,29.99,NW,315,4.7,4.7,26,0.00,,,0.00,WUHU21623XXSP,2013-08-23 22:53:00,
2013-08-23 15:58:00,81.7,43.1,29.99,WSW,247,1.1,4.7,26,0.00,,,0.00,WUHU21623XXSP,2013-08-23 22:58:00,
2013-08-23 16:03:00,82.0,43.4,29.99,SW,225,0.0,1.1,26,0.00,,,0.00,WUHU21623XXSP,2013-08-23 23:03:00,
2013-08-23 16:14:00,81.7,44.1,29.99,NW,315,0.0,0.0,27,0.00,,,0.00,WUHU21623XXSP,2013-08-23 23:14:00,
2013-08-23 16:21:00,81.7,44.1,29.99,West,270,1.1,1.1,27,0.00,,,0.00,WUHU21623XXSP,2013-08-23 23:21:00,
2013-08-23 16:27:00,81.7,44.1,29.99,North,0,0.0,1.1,27,0.00,,,0.00,WUHU21623XXSP,2013-08-23 23:27:00,
2013-08-23 16:32:00,81.7,44.1,29.99,NW,315,2.0,2.0,27,0.00,,,0.00,WUHU21623XXSP,2013-08-23 23:32:00,
2013-08-23 16:38:00,81.5,44.0,29.99,WSW,247,1.3,2.0,27,0.00,,,0.00,WUHU21623XXSP,2013-08-23 23:38:00,
2013-08-23 16:46:00,81.3,43.8,29.99,South,180,7.6,7.6,28,0.00,,,0.00,WUHU21623XXSP,2013-08-23 23:46:00,
2013-08-23 16:55:00,80.8,44.5,29.98,WNW,292,0.0,7.6,28,0.00,,,0.00,WUHU21623XXSP,2013-08-23 23:55:00,
2013-08-23 17:01:00,80.4,44.1,29.99,SSW,202,5.4,5.4,28,0.00,,,0.00,WUHU21623XXSP,2013-08-24 00:01:00,
2013-08-23 17:06:00,80.4,44.1,29.99,SSE,157,2.9,5.4,28,0.00,,,0.00,WUHU21623XXSP,2013-08-24 00:06:00,
2013-08-23 17:11:00,79.9,43.7,29.99,SSW,202,0.0,3.4,28,0.00,,,0.00,WUHU21623XXSP,2013-08-24 00:11:00,
2013-08-23 17:20:00,79.2,43.0,29.99,SSE,157,7.6,7.6,28,0.00,,,0.00,WUHU21623XXSP,2013-08-24 00:20:00,
2013-08-23 17:25:00,79.2,43.0,29.99,SSE,157,7.6,7.6,28,0.00,,,0.00,WUHU21623XXSP,2013-08-24 00:25:00,
2013-08-23 17:30:00,78.6,42.5,29.99,South,180,0.0,7.6,28,0.00,,,0.00,WUHU21623XXSP,2013-08-24 00:30:00,
2013-08-23 17:36:00,78.4,42.4,29.99,SSE,157,2.0,2.0,28,0.00,,,0.00,WUHU21623XXSP,2013-08-24 00:36:00,
2013-08-23 17:44:00,77.7,42.0,29.99,South,180,3.1,3.1,28,0.00,,,0.00,WUHU21623XXSP,2013-08-24 00:44:00,
2013-08-23 17:50:00,77.5,41.7,29.99,SW,225,0.0,3.1,28,0.00,,,0.00,WUHU21623XXSP,2013-08-24 00:50:00,
2013-08-23 17:55:00,77.5,42.7,29.99,SW,225,2.2,2.2,29,0.00,,,0.00,WUHU21623XXSP,2013-08-24 00:55:00,
2013-08-23 18:03:00,77.4,42.6,29.99,WNW,292,4.7,4.7,29,0.00,,,0.00,WUHU21623XXSP,2013-08-24 01:03:00,
2013-08-23 18:08:00,77.4,42.6,29.99,WNW,292,0.0,4.7,29,0.00,,,0.00,WUHU21623XXSP,2013-08-24 01:08:00,
2013-08-23 18:27:00,76.8,42.1,29.99,NW,315,0.0,0.0,29,0.00,,,0.00,WUHU21623XXSP,2013-08-24 01:27:00,
2013-08-23 18:33:00,76.8,43.2,29.99,WSW,247,2.0,2.0,30,0.00,,,0.00,WUHU21623XXSP,2013-08-24 01:33:00,
2013-08-23 18:39:00,76.6,43.0,29.99,WNW,292,0.0,2.0,30,0.00,,,0.00,WUHU21623XXSP,2013-08-24 01:39:00,
2013-08-23 18:46:00,76.3,42.7,29.99,NNW,337,3.6,3.6,30,0.00,,,0.00,WUHU21623XXSP,2013-08-24 01:46:00,
2013-08-23 18:54:00,75.9,42.4,29.99,NW,315,0.0,3.6,30,0.00,,,0.00,WUHU21623XXSP,2013-08-24 01:54:00,
2013-08-23 19:05:00,75.4,41.9,30.00,WNW,292,0.0,0.0,30,0.00,,,0.00,WUHU21623XXSP,2013-08-24 02:05:00,
2013-08-23 19:10:00,75.4,42.6,29.99,WNW,292,0.0,0.0,31,0.00,,,0.00,WUHU21623XXSP,2013-08-24 02:10:00,
2013-08-23 19:16:00,75.0,42.3,29.99,NW,315,2.0,2.0,31,0.00,,,0.00,WUHU21623XXSP,2013-08-24 02:16:00,
2013-08-23 19:21:00,74.8,42.2,30.00,WSW,247,3.6,3.6,31,0.00,,,0.00,WUHU21623XXSP,2013-08-24 02:21:00,
2013-08-23 19:26:00,74.5,41.8,29.99,SW,225,0.0,3.6,31,0.00,,,0.00,WUHU21623XXSP,2013-08-24 02:26:00,
2013-08-23 19:31:00,74.1,41.7,29.99,WNW,292,0.0,0.0,31,0.00,,,0.00,WUHU21623XXSP,2013-08-24 02:31:00,
2013-08-23 19:36:00,73.9,41.3,30.00,West,270,0.0,0.0,31,0.00,,,0.00,WUHU21623XXSP,2013-08-24 02:36:00,
2013-08-23 19:41:00,73.9,41.3,30.00,North,0,0.0,0.0,31,0.00,,,0.00,WUHU21623XXSP,2013-08-24 02:41:00,
2013-08-23 19:48:00,73.2,41.5,30.00,NNW,337,1.1,1.1,32,0.00,,,0.00,WUHU21623XXSP,2013-08-24 02:48:00,
2013-08-23 19:59:00,72.7,42.5,30.00,WNW,292,3.8,3.8,34,0.00,,,0.00,WUHU21623XXSP,2013-08-24 02:59:00,
2013-08-23 20:04:00,72.5,42.4,30.00,West,270,0.0,3.8,34,0.00,,,0.00,WUHU21623XXSP,2013-08-24 03:04:00,
2013-08-23 20:09:00,72.3,42.2,30.00,NNW,337,0.0,0.0,34,0.00,,,0.00,WUHU21623XXSP,2013-08-24 03:09:00,
2013-08-23 20:14:00,72.1,42.1,30.00,NNE,22,0.0,0.0,34,0.00,,,0.00,WUHU21623XXSP,2013-08-24 03:14:00,
2013-08-23 20:24:00,71.4,41.5,30.00,SSE,157,0.0,0.0,34,0.00,,,0.00,WUHU21623XXSP,2013-08-24 03:24:00,
2013-08-23 20:33:00,70.9,41.0,30.00,West,270,0.0,0.0,34,0.00,,,0.00,WUHU21623XXSP,2013-08-24 03:33:00,
2013-08-23 20:41:00,70.2,40.3,30.01,NW,315,0.0,0.0,34,0.00,,,0.00,WUHU21623XXSP,2013-08-24 03:41:00,
2013-08-23 20:46:00,69.6,39.8,30.01,NW,315,0.0,0.0,34,0.00,,,0.00,WUHU21623XXSP,2013-08-24 03:46:00,
2013-08-23 20:52:00,69.1,40.1,30.01,ENE,67,0.0,0.0,35,0.00,,,0.00,WUHU21623XXSP,2013-08-24 03:52:00,
2013-08-23 20:58:00,68.4,39.4,30.01,East,90,0.0,0.0,35,0.00,,,0.00,WUHU21623XXSP,2013-08-24 03:58:00,
2013-08-23 21:01:00,68.4,39.4,30.01,East,90,0.0,0.0,35,0.00,,,0.00,WUHU21623XXSP,2013-08-24 04:01:00,
2013-08-23 21:02:00,68.4,39.4,30.01,East,90,0.0,0.0,35,0.00,,,0.00,WUHU21623XXSP,2013-08-24 04:02:00,
2013-08-23 21:11:00,67.1,39.1,30.02,SSE,157,0.0,0.0,36,0.00,,,0.00,WUHU21623XXSP,2013-08-24 04:11:00,
2013-08-23 21:18:00,66.6,38.6,30.02,SE,135,0.0,0.0,36,0.00,,,0.00,WUHU21623XXSP,2013-08-24 04:18:00,
2013-08-23 21:28:00,65.5,37.7,30.02,East,90,0.0,0.0,36,0.00,,,0.00,WUHU21623XXSP,2013-08-24 04:28:00,
2013-08-23 21:35:00,65.1,38.0,30.02,ESE,112,0.0,0.0,37,0.00,,,0.00,WUHU21623XXSP,2013-08-24 04:35:00,
2013-08-23 21:43:00,64.6,37.6,30.02,ENE,67,0.0,0.0,37,0.00,,,0.00,WUHU21623XXSP,2013-08-24 04:43:00,
2013-08-23 21:52:00,64.2,37.2,30.02,SSE,157,0.0,0.0,37,0.00,,,0.00,WUHU21623XXSP,2013-08-24 04:52:00,
2013-08-23 22:03:00,63.7,36.8,30.03,SE,135,0.0,0.0,37,0.00,,,0.00,WUHU21623XXSP,2013-08-24 05:03:00,
2013-08-23 22:09:00,63.3,36.4,30.03,ENE,67,0.0,0.0,37,0.00,,,0.00,WUHU21623XXSP,2013-08-24 05:09:00,
2013-08-23 22:18:00,62.8,36.7,30.03,East,90,0.0,0.0,38,0.00,,,0.00,WUHU21623XXSP,2013-08-24 05:18:00,
2013-08-23 22:24:00,62.4,36.3,30.03,East,90,0.0,0.0,38,0.00,,,0.00,WUHU21623XXSP,2013-08-24 05:24:00,
2013-08-23 22:37:00,61.5,36.2,30.03,ENE,67,0.0,0.0,39,0.00,,,0.00,WUHU21623XXSP,2013-08-24 05:37:00,
2013-08-23 22:42:00,61.5,37.0,30.02,East,90,0.0,0.0,40,0.00,,,0.00,WUHU21623XXSP,2013-08-24 05:42:00,
2013-08-23 22:48:00,61.3,37.4,30.03,SW,225,0.0,0.0,41,0.00,,,0.00,WUHU21623XXSP,2013-08-24 05:48:00,
2013-08-23 22:54:00,61.0,37.6,30.03,South,180,0.0,0.0,42,0.00,,,0.00,WUHU21623XXSP,2013-08-24 05:54:00,
2013-08-23 22:59:00,60.6,37.3,30.03,South,180,0.0,0.0,42,0.00,,,0.00,WUHU21623XXSP,2013-08-24 05:59:00,
2013-08-23 23:04:00,60.6,37.3,30.03,South,180,0.0,0.0,42,0.00,,,0.00,WUHU21623XXSP,2013-08-24 06:04:00,
2013-08-23 23:11:00,59.9,36.7,30.03,ENE,67,0.0,0.0,42,0.00,,,0.00,WUHU21623XXSP,2013-08-24 06:11:00,
2013-08-23 23:16:00,59.7,36.5,30.03,WNW,292,0.0,0.0,42,0.00,,,0.00,WUHU21623XXSP,2013-08-24 06:16:00,
2013-08-23 23:22:00,59.5,36.3,30.03,SW,225,0.0,0.0,42,0.00,,,0.00,WUHU21623XXSP,2013-08-24 06:22:00,
2013-08-23 23:30:00,59.0,36.4,30.03,SSE,157,0.0,0.0,43,0.00,,,0.00,WUHU21623XXSP,2013-08-24 06:30:00,
2013-08-23 23:35:00,58.8,36.3,30.03,SSE,157,0.0,0.0,43,0.00,,,0.00,WUHU21623XXSP,2013-08-24 06:35:00,
2013-08-23 23:43:00,58.3,35.8,30.03,SSE,157,0.0,0.0,43,0.00,,,0.00,WUHU21623XXSP,2013-08-24 06:43:00,
2013-08-23 23:52:00,57.9,36.0,30.03,SSE,157,0.0,0.0,44,0.00,,,0.00,WUHU21623XXSP,2013-08-24 06:52:00,
2013-08-23 23:57:00,57.6,35.7,30.03,SSE,157,0.0,0.0,44,0.00,,,0.00,WUHU21623XXSP,2013-08-24 06:57:00,